Nearby METAR Reports

 

KCOE - Coeur D'alene, Idaho, USA
Distance from station: SSE 4mi, 7km
Updated: Mon, 20-Nov-2017 9:56pm PST
Overcast
Overcast
 Wind from W
Wind: W 6 mph , 9 km/h
Temperature: 41°F , 5°C
Wind Chill: 37°F , 3°C
Dew Point: 37°F , 3°C
Humidity: 87%
Barometer: 30.05 inHg , 1017.6 hPa
Clouds: Overcast
Visibility: 10 miles , 16 km
Cloud details: Mostly cloudy 2700 ft
Overcast 3200 ft
2017/11/21 05:56 KCOE 210556Z AUTO 26005KT 10SM BKN027 OVC032 05/03 A3005 RMK AO2 SLP207 60001 T00500033 10072 20050 53040
KSFF - Spokane/Felts, Washington, USA
Distance from station: WSW 24mi, 39km
Updated: Mon, 20-Nov-2017 9:53pm PST
Clear
Clear
 Wind from calm
Wind: Calm
Temperature: 39°F , 4°C
Dew Point: 37°F , 3°C
Humidity: 93%
Barometer: 30.06 inHg , 1017.9 hPa
Clouds: Clear
Visibility: 10 miles , 16 km
2017/11/21 05:53 KSFF 210553Z AUTO 00000KT 10SM CLR 04/03 A3006 RMK AO2 SLP186 T00390033 10089 20039 53050
 
KDEW - Deer Park, Washington, USA
Distance from station: WNW 29mi, 47km
Updated: Mon, 20-Nov-2017 9:53pm PST
Overcast
Overcast
 Wind from S
Wind: S 3 mph , 6 km/h
Temperature: 39°F , 4°C
Dew Point: 39°F , 4°C
Humidity: 100%
Barometer: 30.04 inHg , 1017.3 hPa
Clouds: Overcast
Visibility: 10 miles , 16 km
Cloud details: Overcast 1000 ft
2017/11/21 05:53 KDEW 210553Z AUTO 19003KT 10SM OVC010 04/04 A3004 RMK AO2 SLP184 60002 T00440039 10050 20039 53038
KSZT - Wall/Sandpoint, Idaho, USA
Distance from station: NNE 35mi, 56km
Updated: Mon, 20-Nov-2017 9:55pm PST
Light drizzle, Overcast
Light drizzle, Overcast
 Wind from S
Wind: S 3 mph , 6 km/h
Temperature: 36°F , 2°C
Dew Point: 36°F , 2°C
Humidity: 100%
Barometer: 30.03 inHg , 1016.9 hPa
Summary: Light Drizzle
Clouds: Overcast
Visibility: 5 miles , 8 km
Cloud details: Overcast 1200 ft
2017/11/21 05:55 KSZT 210555Z AUTO 19003KT 5SM -DZ OVC012 02/02 A3003 RMK AO2
 
KGEG - Spokane/Metro, Washington, USA
Distance from station: WSW 35mi, 57km
Updated: Mon, 20-Nov-2017 9:53pm PST
Partly cloudy
Partly cloudy
 Wind from SSW
Wind: SSW 5 mph , 7 km/h
Temperature: 37°F , 3°C
Wind Chill: 33°F , 1°C
Dew Point: 37°F , 3°C
Humidity: 100%
Barometer: 30.04 inHg , 1017.3 hPa
Clouds: Partly cloudy
Visibility: 10 miles , 16 km
Cloud details: Few Clouds 1200 ft
Few Clouds 1800 ft
Partly cloudy 7000 ft
2017/11/21 05:53 KGEG 210553Z 20004KT 10SM FEW012 FEW018 SCT070 03/03 A3004 RMK AO2 SLP184 T00280028 10072 20022 53045
KSKA - Fairchild Afb, Washington, USA
Distance from station: WSW 40mi, 65km
Updated: Mon, 20-Nov-2017 9:58pm PST
Fog, Mostly cloudy
Fog, Mostly cloudy
 Wind from SSW
Wind: SSW 5 mph , 7 km/h
Temperature: 36°F , 2°C
Wind Chill: 32°F , 0°C
Dew Point: 36°F , 2°C
Humidity: 100%
Barometer: 30.02 inHg , 1016.6 hPa
Summary: Fog
Clouds: Mostly cloudy
Visibility: 1/2 mile , 2 km
Cloud details: Mostly cloudy 200 ft
Mostly cloudy 7000 ft
2017/11/21 05:58 KSKA 210558Z 20004KT 1/2SM R23/2200V3500FT FG BKN002 BKN070 02/02 A3002 RMK AO2A VIS 1/2V5 CIG 002V070 BKN002 V SCT SLP183 T00230023 10063 20019 52040 CHINO RWY05 $